Fortunia — V2OG3 — position and weather

sailwx.info

Track history (hours):
 
Tides and Currents Weather Stations Pressure Air Temp Water Temp Dewpoint Dewpoint Depression Visibility Wind Speed Wind Dir Waves Ship Positions

Fortunia

Last reported at 2016-Aug-29 03:03 UTC. Time now 2016-Sep-27 20:44 UTC.
Position N 20°26' W 017°51'.
Warning: this ship's position is 29 days out of date.

Length 121 m; draft 6.4 m.

Type: Ship. MMSI: 304010638.

Date/timePositionNaut miles runAvg speedWind from/ knotsBaromVisibWave heightAir tempDewpointWater temp
2016-Aug-29 03:03N 20°26' W 017°51'  
2016-Aug-25 10:05N 28°16' W 016°04'814.6
2016-Aug-25 09:33N 28°22' W 015°59'1414.4
2016-Aug-25 08:33N 28°34' W 015°49'1414.3
2016-Aug-25 07:33N 28°47' W 015°43'1914.6
2016-Aug-25 06:15N 29°05' W 015°36'2514.6
2016-Aug-25 04:32N 29°29' W 015°27'1514.5
2016-Aug-25 03:32N 29°43' W 015°24'1414.3
2016-Aug-25 02:34N 29°57' W 015°20'1614.5
2016-Aug-25 01:28N 30°12' W 015°14'1614.7
2016-Aug-25 00:21N 30°27' W 015°07'1715.1
2016-Aug-24 23:15N 30°43' W 015°01'5514.8
2016-Aug-24 19:33N 31°35' W 014°40'1414.6
2016-Aug-24 18:33N 31°49' W 014°35'4814.6
2016-Aug-24 15:16N 32°35' W 014°18'19514.2
2016-Aug-24 01:32N 35°40' W 013°07'2814.0
2016-Aug-23 23:33N 36°06' W 012°56'1414.0
2016-Aug-23 22:33N 36°20' W 012°51'1414.1
2016-Aug-23 21:33N 36°33' W 012°45'1413.9
2016-Aug-23 20:33N 36°46' W 012°40'1414.1
2016-Aug-23 19:32N 37°00' W 012°35'1414.0
2016-Aug-23 18:33N 37°13' W 012°29'1714.2
2016-Aug-23 17:22N 37°29' W 012°23'1113.8
2016-Aug-23 16:33N 37°40' W 012°19'1413.8
2016-Aug-23 15:33N 37°53' W 012°13'1413.8
2016-Aug-23 14:33N 38°06' W 012°08'1313.5
2016-Aug-23 13:33N 38°19' W 012°03'1413.8
2016-Aug-23 12:33N 38°32' W 011°57'1413.9
2016-Aug-23 11:33N 38°45' W 011°52'1413.9
2016-Aug-23 10:31N 38°59' W 011°46'1414.3
2016-Aug-23 09:33N 39°12' W 011°41'1514.3
2016-Aug-23 08:32N 39°26' W 011°35'1414.2
2016-Aug-23 07:33N 39°39' W 011°29'1414.1
2016-Aug-23 06:33N 39°53' W 011°24'1414.3
2016-Aug-23 05:33N 40°06' W 011°18'3414.2
2016-Aug-23 03:11N 40°39' W 011°05'1614.6
2016-Aug-23 02:06N 40°53' W 010°59'2714.7
2016-Aug-23 00:16N 41°19' W 010°48'1014.5
2016-Aug-22 23:33N 41°29' W 010°44'7114.2
2016-Aug-22 18:33N 42°36' W 010°14'50912.1
2016-Aug-21 00:33N 49°45' W 003°36'1010.0
2016-Aug-20 23:33N 49°49' W 003°22'9 8.7
2016-Aug-20 22:33N 49°53' W 003°10'7 7.0
2016-Aug-20 21:33N 49°57' W 003°01'6 6.0
2016-Aug-20 20:33N 49°59' W 002°52'6 5.5
2016-Aug-20 19:32N 50°01' W 002°44'5 5.4
2016-Aug-20 18:33N 50°03' W 002°36'7211.9
2016-Aug-20 12:31N 50°24' W 000°49'16 8.2
2016-Aug-20 10:33N 50°28' W 000°24'7 7.0
2016-Aug-20 09:33N 50°30' W 000°14'9 8.6
2016-Aug-20 08:33N 50°32' W 000°01'1110.7
2016-Aug-20 07:32N 50°35' E 000°16'1412.3
2016-Aug-20 06:26N 50°40' E 000°36'2612.9
2016-Aug-20 04:24N 50°54' E 001°10'1011.7
2016-Aug-20 03:33N 51°01' E 001°22'1010.3
2016-Aug-20 02:33N 51°07' E 001°34'9 8.9
2016-Aug-20 01:33N 51°13' E 001°45'9 9.4
2016-Aug-20 00:33N 51°21' E 001°54'9 9.1
2016-Aug-19 23:33N 51°23' E 002°08'1211.8
2016-Aug-19 22:33N 51°22' E 002°27'1211.7
2016-Aug-19 21:33N 51°22' E 002°46'1312.6
2016-Aug-19 20:34N 51°24' E 003°06'1414.4
2016-Aug-19 19:34N 51°25' E 003°29'9 9.2
2016-Aug-19 18:33N 51°28' E 003°43'0 0.1
2016-Aug-19 17:32N 51°28' E 003°43'0 0.0
2016-Aug-19 16:32N 51°28' E 003°43'0 0.0
2016-Aug-19 15:31N 51°28' E 003°43'0 0.0
2016-Aug-19 14:31N 51°28' E 003°43'0 0.0
2016-Aug-19 13:28N 51°28' E 003°43'0 0.0
2016-Aug-19 12:33N 51°28' E 003°43'0 0.0
2016-Aug-19 11:33N 51°28' E 003°43'0 0.0
2016-Aug-19 10:32N 51°28' E 003°43'0 0.0
2016-Aug-19 09:32N 51°28' E 003°43'0 0.0
2016-Aug-19 08:31N 51°28' E 003°43'0 0.0
2016-Aug-19 07:31N 51°28' E 003°43'0 0.0
2016-Aug-19 06:31N 51°28' E 003°43'0 0.0
2016-Aug-19 05:33N 51°28' E 003°43'0 0.0
2016-Aug-19 04:33N 51°28' E 003°43'0 0.2
2016-Aug-19 03:33N 51°28' E 003°43'  
Track history (hours):
 
Tides and Currents Weather Stations Pressure Air Temp Water Temp Dewpoint Dewpoint Depression Visibility Wind Speed Wind Dir Waves Ship Positions

Fortunia

Last reported at 2016-Aug-29 03:03 UTC. Time now 2016-Sep-27 20:44 UTC.
Position N 20°26' W 017°51'.
Warning: this ship's position is 29 days out of date.

Length 121 m; draft 6.4 m.

Type: Ship. MMSI: 304010638.

Date/timePositionNaut miles runAvg speedWind from/ knotsBaromVisibWave heightAir tempDewpointWater temp
2016-Aug-29 03:03N 20°26' W 017°51'  
2016-Aug-25 10:05N 28°16' W 016°04'814.6
2016-Aug-25 09:33N 28°22' W 015°59'1414.4
2016-Aug-25 08:33N 28°34' W 015°49'1414.3
2016-Aug-25 07:33N 28°47' W 015°43'1914.6
2016-Aug-25 06:15N 29°05' W 015°36'2514.6
2016-Aug-25 04:32N 29°29' W 015°27'1514.5
2016-Aug-25 03:32N 29°43' W 015°24'1414.3
2016-Aug-25 02:34N 29°57' W 015°20'1614.5
2016-Aug-25 01:28N 30°12' W 015°14'1614.7
2016-Aug-25 00:21N 30°27' W 015°07'1715.1
2016-Aug-24 23:15N 30°43' W 015°01'5514.8
2016-Aug-24 19:33N 31°35' W 014°40'1414.6
2016-Aug-24 18:33N 31°49' W 014°35'4814.6
2016-Aug-24 15:16N 32°35' W 014°18'19514.2
2016-Aug-24 01:32N 35°40' W 013°07'2814.0
2016-Aug-23 23:33N 36°06' W 012°56'1414.0
2016-Aug-23 22:33N 36°20' W 012°51'1414.1
2016-Aug-23 21:33N 36°33' W 012°45'1413.9
2016-Aug-23 20:33N 36°46' W 012°40'1414.1
2016-Aug-23 19:32N 37°00' W 012°35'1414.0
2016-Aug-23 18:33N 37°13' W 012°29'1714.2
2016-Aug-23 17:22N 37°29' W 012°23'1113.8
2016-Aug-23 16:33N 37°40' W 012°19'1413.8
2016-Aug-23 15:33N 37°53' W 012°13'1413.8
2016-Aug-23 14:33N 38°06' W 012°08'1313.5
2016-Aug-23 13:33N 38°19' W 012°03'1413.8
2016-Aug-23 12:33N 38°32' W 011°57'1413.9
2016-Aug-23 11:33N 38°45' W 011°52'1413.9
2016-Aug-23 10:31N 38°59' W 011°46'1414.3
2016-Aug-23 09:33N 39°12' W 011°41'1514.3
2016-Aug-23 08:32N 39°26' W 011°35'1414.2
2016-Aug-23 07:33N 39°39' W 011°29'1414.1
2016-Aug-23 06:33N 39°53' W 011°24'1414.3
2016-Aug-23 05:33N 40°06' W 011°18'3414.2
2016-Aug-23 03:11N 40°39' W 011°05'1614.6
2016-Aug-23 02:06N 40°53' W 010°59'2714.7
2016-Aug-23 00:16N 41°19' W 010°48'1014.5
2016-Aug-22 23:33N 41°29' W 010°44'7114.2
2016-Aug-22 18:33N 42°36' W 010°14'50912.1
2016-Aug-21 00:33N 49°45' W 003°36'1010.0
2016-Aug-20 23:33N 49°49' W 003°22'9 8.7
2016-Aug-20 22:33N 49°53' W 003°10'7 7.0
2016-Aug-20 21:33N 49°57' W 003°01'6 6.0
2016-Aug-20 20:33N 49°59' W 002°52'6 5.5
2016-Aug-20 19:32N 50°01' W 002°44'5 5.4
2016-Aug-20 18:33N 50°03' W 002°36'7211.9
2016-Aug-20 12:31N 50°24' W 000°49'16 8.2
2016-Aug-20 10:33N 50°28' W 000°24'7 7.0
2016-Aug-20 09:33N 50°30' W 000°14'9 8.6
2016-Aug-20 08:33N 50°32' W 000°01'1110.7
2016-Aug-20 07:32N 50°35' E 000°16'1412.3
2016-Aug-20 06:26N 50°40' E 000°36'2612.9
2016-Aug-20 04:24N 50°54' E 001°10'1011.7
2016-Aug-20 03:33N 51°01' E 001°22'1010.3
2016-Aug-20 02:33N 51°07' E 001°34'9 8.9
2016-Aug-20 01:33N 51°13' E 001°45'9 9.4
2016-Aug-20 00:33N 51°21' E 001°54'9 9.1
2016-Aug-19 23:33N 51°23' E 002°08'1211.8
2016-Aug-19 22:33N 51°22' E 002°27'1211.7
2016-Aug-19 21:33N 51°22' E 002°46'1312.6
2016-Aug-19 20:34N 51°24' E 003°06'1414.4
2016-Aug-19 19:34N 51°25' E 003°29'9 9.2
2016-Aug-19 18:33N 51°28' E 003°43'0 0.1
2016-Aug-19 17:32N 51°28' E 003°43'0 0.0
2016-Aug-19 16:32N 51°28' E 003°43'0 0.0
2016-Aug-19 15:31N 51°28' E 003°43'0 0.0
2016-Aug-19 14:31N 51°28' E 003°43'0 0.0
2016-Aug-19 13:28N 51°28' E 003°43'0 0.0
2016-Aug-19 12:33N 51°28' E 003°43'0 0.0
2016-Aug-19 11:33N 51°28' E 003°43'0 0.0
2016-Aug-19 10:32N 51°28' E 003°43'0 0.0
2016-Aug-19 09:32N 51°28' E 003°43'0 0.0
2016-Aug-19 08:31N 51°28' E 003°43'0 0.0
2016-Aug-19 07:31N 51°28' E 003°43'0 0.0
2016-Aug-19 06:31N 51°28' E 003°43'0 0.0
2016-Aug-19 05:33N 51°28' E 003°43'0 0.0
2016-Aug-19 04:33N 51°28' E 003°43'0 0.2
2016-Aug-19 03:33N 51°28' E 003°43'  

Dump ship's entire track history